Time;durP1;ratioP1;P1;durP2;ratioP2;P2;SDS_P1;SDS_P2;PMS_P1;PMS_P2;Temp;Humidity;BMP_temperature;BMP_pressure;BME280_temperature;BME280_humidity;BME280_pressure;Samples;Min_cycle;Max_cycle;Signal;HPM_P1;HPM_P2
2023/05/19 00:01:15;;;;;;;7.55;3.22;;;11.10;99.90;;;;;;5082227;28;20024;-43
2023/05/19 00:03:53;;;;;;;8.65;3.30;;;11.10;99.90;;;;;;5081480;28;20071;-42
2023/05/19 00:06:26;;;;;;;5.85;2.90;;;11.10;99.90;;;;;;5080785;28;20032;-43
2023/05/19 00:09:06;;;;;;;6.32;3.38;;;11.10;99.90;;;;;;5073830;28;20047;-44
2023/05/19 00:11:34;;;;;;;6.10;3.28;;;11.10;99.90;;;;;;5079302;28;20135;-44
2023/05/19 00:14:01;;;;;;;7.03;3.05;;;11.00;99.90;;;;;;5082197;28;20024;-43
2023/05/19 00:16:29;;;;;;;6.60;3.30;;;11.00;99.90;;;;;;5082129;28;20039;-43
2023/05/19 00:18:56;;;;;;;7.55;3.30;;;11.00;99.90;;;;;;5080246;28;20814;-43
2023/05/19 00:21:22;;;;;;;8.60;3.60;;;10.90;99.90;;;;;;5082242;28;20059;-43
2023/05/19 00:23:51;;;;;;;5.78;3.15;;;10.90;99.90;;;;;;5080828;28;20154;-43
2023/05/19 00:26:16;;;;;;;5.40;3.10;;;10.80;99.90;;;;;;5081413;28;20625;-43
2023/05/19 00:28:42;;;;;;;5.90;3.30;;;10.80;99.90;;;;;;5075766;28;20029;-44
2023/05/19 00:31:07;;;;;;;6.32;3.17;;;10.80;99.90;;;;;;5084374;28;20115;-43
2023/05/19 00:33:33;;;;;;;5.00;3.10;;;10.80;99.90;;;;;;5082158;28;20078;-43
2023/05/19 00:36:02;;;;;;;6.03;3.33;;;10.80;99.90;;;;;;5084382;28;20751;-43
2023/05/19 00:38:31;;;;;;;5.80;2.55;;;10.80;99.90;;;;;;5082310;28;20145;-43
2023/05/19 00:40:57;;;;;;;3.95;2.95;;;10.70;99.90;;;;;;5085165;28;20031;-43
2023/05/19 00:43:22;;;;;;;8.98;3.67;;;10.70;99.90;;;;;;5085011;28;20032;-43
2023/05/19 00:45:48;;;;;;;4.10;3.03;;;10.70;99.90;;;;;;5084285;28;20046;-43
2023/05/19 00:48:13;;;;;;;7.68;3.85;;;10.70;99.90;;;;;;5085138;28;20618;-44
2023/05/19 00:50:40;;;;;;;7.18;3.58;;;10.70;99.90;;;;;;5077601;28;20571;-44
2023/05/19 00:53:05;;;;;;;6.40;3.25;;;10.60;99.90;;;;;;5069233;28;20027;-43
2023/05/19 00:55:33;;;;;;;6.30;3.38;;;10.60;99.90;;;;;;5083837;28;20048;-43
2023/05/19 00:57:59;;;;;;;5.45;3.00;;;10.60;99.90;;;;;;5077825;28;20241;-43
2023/05/19 01:00:24;;;;;;;6.07;3.15;;;10.60;99.90;;;;;;5083414;28;20446;-42
2023/05/19 01:02:50;;;;;;;5.22;3.17;;;10.60;99.90;;;;;;5082846;28;20028;-43
2023/05/19 01:05:16;;;;;;;4.55;3.20;;;10.60;99.90;;;;;;5086312;28;20036;-43
2023/05/19 01:07:42;;;;;;;7.03;3.20;;;10.60;99.90;;;;;;5077554;28;20792;-43
2023/05/19 01:10:08;;;;;;;5.43;3.08;;;10.50;99.90;;;;;;5083381;28;20111;-43
2023/05/19 01:12:34;;;;;;;4.22;3.00;;;10.50;99.90;;;;;;5084853;28;20027;-43
2023/05/19 01:15:01;;;;;;;6.85;3.00;;;10.40;99.90;;;;;;5083669;28;20077;-43
2023/05/19 01:17:57;;;;;;;5.82;3.00;;;10.40;99.90;;;;;;5080580;28;20054;-43
2023/05/19 01:20:34;;;;;;;6.22;3.15;;;10.40;99.90;;;;;;5080155;28;20059;-45
2023/05/19 01:23:06;;;;;;;5.88;3.53;;;10.30;99.90;;;;;;5085133;28;20499;-44
2023/05/19 01:26:08;;;;;;;8.13;3.53;;;10.40;99.90;;;;;;5083538;28;20055;-44
2023/05/19 01:29:22;;;;;;;4.22;2.53;;;10.30;99.90;;;;;;5068400;28;20032;-43
2023/05/19 01:31:49;;;;;;;5.03;2.85;;;10.30;99.90;;;;;;5042128;28;20039;-43
2023/05/19 01:34:16;;;;;;;4.38;2.60;;;10.20;99.90;;;;;;5085203;28;20020;-43
2023/05/19 01:36:43;;;;;;;6.40;2.90;;;10.20;99.90;;;;;;5082856;28;20137;-43
2023/05/19 01:39:09;;;;;;;7.60;3.15;;;10.20;99.90;;;;;;5082970;28;20475;-43
2023/05/19 01:41:36;;;;;;;4.10;2.90;;;10.20;99.90;;;;;;5083250;28;20108;-43
2023/05/19 01:44:02;;;;;;;5.45;3.15;;;10.20;99.90;;;;;;5085099;28;20063;-43
2023/05/19 01:46:28;;;;;;;5.03;3.15;;;10.10;99.90;;;;;;5082996;28;20112;-43
2023/05/19 01:48:54;;;;;;;4.88;3.30;;;10.10;99.90;;;;;;5082551;28;20031;-42
2023/05/19 01:51:20;;;;;;;5.70;3.65;;;10.10;99.90;;;;;;5079776;28;20394;-43
2023/05/19 01:53:45;;;;;;;5.95;3.42;;;10.00;99.90;;;;;;5080223;28;20021;-42
2023/05/19 01:56:20;;;;;;;6.32;3.60;;;10.00;99.90;;;;;;5077187;28;20058;-44
2023/05/19 01:58:55;;;;;;;11.32;3.97;;;10.00;99.90;;;;;;5069304;28;20543;-43
2023/05/19 02:01:50;;;;;;;4.97;3.22;;;10.00;99.90;;;;;;5076932;28;20038;-42
2023/05/19 02:04:27;;;;;;;7.75;3.33;;;9.90;99.90;;;;;;5062816;28;20044;-43
2023/05/19 02:07:21;;;;;;;4.60;3.08;;;9.90;99.90;;;;;;5079375;28;20754;-33
2023/05/19 02:10:18;;;;;;;10.27;3.38;;;9.90;99.90;;;;;;5062493;28;20033;-33
2023/05/19 02:12:45;;;;;;;6.20;3.25;;;9.80;99.90;;;;;;5080086;28;20138;-33
2023/05/19 02:15:14;;;;;;;5.72;3.25;;;9.80;99.90;;;;;;5084282;28;20035;-33
2023/05/19 02:17:46;;;;;;;5.75;3.50;;;9.70;99.90;;;;;;5079381;28;20036;-33
2023/05/19 02:20:15;;;;;;;4.75;3.28;;;9.70;99.90;;;;;;5067404;28;20043;-33
2023/05/19 02:22:41;;;;;;;5.90;3.35;;;9.70;99.90;;;;;;5078673;28;20032;-33
2023/05/19 02:25:07;;;;;;;6.82;4.10;;;9.70;99.90;;;;;;5066161;28;20051;-33
2023/05/19 02:27:35;;;;;;;6.68;3.55;;;9.60;99.90;;;;;;5079438;28;20488;-32
2023/05/19 02:30:00;;;;;;;5.35;3.50;;;9.60;99.90;;;;;;5063709;28;20062;-33
2023/05/19 02:32:26;;;;;;;6.15;3.85;;;9.60;99.90;;;;;;5072927;28;20119;-34
2023/05/19 02:34:52;;;;;;;7.63;3.50;;;9.60;99.90;;;;;;5080927;28;20039;-33
2023/05/19 02:37:17;;;;;;;6.30;3.58;;;9.60;99.90;;;;;;5083792;28;20028;-33
2023/05/19 02:39:46;;;;;;;7.35;3.60;;;9.60;99.90;;;;;;5081529;28;20032;-32
2023/05/19 02:42:13;;;;;;;4.32;3.45;;;9.60;99.90;;;;;;5083059;28;20028;-33
2023/05/19 02:44:39;;;;;;;8.57;3.83;;;9.50;99.90;;;;;;5083303;28;20039;-32
2023/05/19 02:47:07;;;;;;;8.18;3.80;;;9.50;99.90;;;;;;5083059;28;20035;-33
2023/05/19 02:49:36;;;;;;;5.20;3.80;;;9.50;99.90;;;;;;5082556;28;20032;-32
2023/05/19 02:52:03;;;;;;;6.65;4.45;;;9.50;99.90;;;;;;5083437;28;20076;-32
2023/05/19 02:54:32;;;;;;;7.82;4.43;;;9.40;99.90;;;;;;5080796;28;20499;-33
2023/05/19 02:56:57;;;;;;;9.02;3.88;;;9.50;99.90;;;;;;5082968;28;20097;-32
2023/05/19 02:59:24;;;;;;;5.75;3.78;;;9.50;99.90;;;;;;5081810;28;20447;-35
2023/05/19 03:01:56;;;;;;;5.95;3.53;;;9.40;99.90;;;;;;5082451;28;20024;-33
2023/05/19 03:04:21;;;;;;;6.20;3.67;;;9.40;99.90;;;;;;5076977;28;20757;-32
2023/05/19 03:06:47;;;;;;;6.75;4.32;;;9.40;99.90;;;;;;5082074;28;20028;-32
2023/05/19 03:09:13;;;;;;;7.00;4.32;;;9.40;99.90;;;;;;5081956;28;20028;-32
2023/05/19 03:11:38;;;;;;;5.88;3.88;;;9.40;99.90;;;;;;5081779;28;20578;-34
2023/05/19 03:14:04;;;;;;;6.68;3.65;;;9.30;99.90;;;;;;5077864;28;20039;-32
2023/05/19 03:16:30;;;;;;;7.82;3.53;;;9.40;99.90;;;;;;5080669;28;20463;-34
2023/05/19 03:18:55;;;;;;;7.72;4.05;;;9.40;99.90;;;;;;5072505;28;20028;-33
2023/05/19 03:21:21;;;;;;;8.50;4.60;;;9.30;99.90;;;;;;5081979;28;20016;-32
2023/05/19 03:23:47;;;;;;;8.20;4.55;;;9.30;99.90;;;;;;5079283;28;20120;-34
2023/05/19 03:26:12;;;;;;;5.47;3.85;;;9.20;99.90;;;;;;5075225;28;20039;-32
2023/05/19 03:28:38;;;;;;;6.97;4.15;;;9.20;99.90;;;;;;5080794;28;20096;-32
2023/05/19 03:31:03;;;;;;;6.22;3.83;;;9.20;99.90;;;;;;5081787;28;20020;-33
2023/05/19 03:33:29;;;;;;;6.40;3.97;;;9.20;99.90;;;;;;5081634;28;20032;-33
2023/05/19 03:35:57;;;;;;;7.55;4.35;;;9.20;99.90;;;;;;5082036;28;20028;-33
2023/05/19 03:38:26;;;;;;;6.32;3.85;;;9.20;99.90;;;;;;5079813;28;20027;-34
2023/05/19 03:40:52;;;;;;;5.22;3.92;;;9.20;99.90;;;;;;5081623;28;20032;-33
2023/05/19 03:43:18;;;;;;;6.18;4.00;;;9.20;99.90;;;;;;5081031;28;20114;-33
2023/05/19 03:45:44;;;;;;;8.23;4.72;;;9.20;99.90;;;;;;5081472;28;20024;-33
2023/05/19 03:48:09;;;;;;;5.82;3.88;;;9.20;99.90;;;;;;5079078;28;20034;-33
2023/05/19 03:50:36;;;;;;;5.78;4.03;;;9.20;99.90;;;;;;5071274;28;20028;-33
2023/05/19 03:53:02;;;;;;;4.95;3.63;;;9.20;99.90;;;;;;5082068;28;20494;-32
2023/05/19 03:55:28;;;;;;;10.30;4.20;;;9.20;99.90;;;;;;5080949;28;20507;-32
2023/05/19 03:57:55;;;;;;;6.88;4.35;;;9.20;99.90;;;;;;5081819;28;20657;-32
2023/05/19 04:00:21;;;;;;;7.18;4.22;;;9.20;99.90;;;;;;5081060;28;20059;-33
2023/05/19 04:02:46;;;;;;;9.55;4.13;;;9.20;99.90;;;;;;5081780;28;20063;-34
2023/05/19 04:05:12;;;;;;;8.07;4.05;;;9.20;99.90;;;;;;5082631;28;20031;-33
2023/05/19 04:07:38;;;;;;;8.05;4.57;;;9.20;99.90;;;;;;5077700;28;20054;-33
2023/05/19 04:10:05;;;;;;;8.38;4.13;;;9.30;99.90;;;;;;5076300;28;20494;-33
2023/05/19 04:12:30;;;;;;;6.82;4.18;;;9.30;99.90;;;;;;5073212;28;20119;-33
2023/05/19 04:14:56;;;;;;;5.60;3.78;;;9.30;99.90;;;;;;5081890;28;20024;-32
2023/05/19 04:17:25;;;;;;;5.55;3.97;;;9.30;99.90;;;;;;5081692;28;20824;-32
2023/05/19 04:19:53;;;;;;;6.75;4.25;;;9.30;99.90;;;;;;5080219;28;20032;-33
2023/05/19 04:22:19;;;;;;;5.38;3.97;;;9.30;99.90;;;;;;5073940;28;20116;-33
2023/05/19 04:24:45;;;;;;;6.80;4.20;;;9.30;99.90;;;;;;5067515;28;20052;-33
2023/05/19 04:27:11;;;;;;;6.65;4.40;;;9.30;99.90;;;;;;5081510;28;20039;-33
2023/05/19 04:29:38;;;;;;;7.05;4.18;;;9.40;99.90;;;;;;5065160;28;20037;-32
2023/05/19 04:32:06;;;;;;;6.22;4.53;;;9.40;99.90;;;;;;5080697;28;20110;-33
2023/05/19 04:34:33;;;;;;;7.63;4.15;;;9.40;99.90;;;;;;5081006;28;20039;-32
2023/05/19 04:36:59;;;;;;;7.68;4.00;;;9.40;99.90;;;;;;5081535;28;20032;-33
2023/05/19 04:39:25;;;;;;;5.22;3.90;;;9.40;99.90;;;;;;5078831;28;20067;-33
2023/05/19 04:41:52;;;;;;;6.20;3.63;;;9.40;99.90;;;;;;5081921;28;20108;-33
2023/05/19 04:44:18;;;;;;;5.35;3.97;;;9.40;99.90;;;;;;5080545;28;20578;-32
2023/05/19 04:46:44;;;;;;;7.47;3.80;;;9.50;99.90;;;;;;5081824;28;20020;-33
2023/05/19 04:49:13;;;;;;;7.38;3.88;;;9.50;99.90;;;;;;5071351;28;20384;-33
2023/05/19 04:51:40;;;;;;;6.85;3.92;;;9.50;99.90;;;;;;5071206;28;20060;-32
2023/05/19 04:54:07;;;;;;;6.50;4.32;;;9.50;99.90;;;;;;5082302;28;20024;-33
2023/05/19 04:56:32;;;;;;;6.35;3.92;;;9.60;99.90;;;;;;5081506;28;20032;-33
2023/05/19 04:58:58;;;;;;;7.80;4.32;;;9.60;99.90;;;;;;5080085;28;20061;-33
2023/05/19 05:01:24;;;;;;;7.20;4.40;;;9.60;99.90;;;;;;5080518;28;20103;-32
2023/05/19 05:03:53;;;;;;;8.75;5.00;;;9.70;99.90;;;;;;5081876;28;20051;-34
2023/05/19 05:06:21;;;;;;;8.35;4.72;;;9.70;99.90;;;;;;5081591;28;20194;-33
2023/05/19 05:08:47;;;;;;;6.45;4.07;;;9.70;99.90;;;;;;5078269;28;20051;-33
2023/05/19 05:11:13;;;;;;;6.28;4.47;;;9.80;99.90;;;;;;5082070;28;20151;-33
2023/05/19 05:13:38;;;;;;;8.85;4.53;;;9.80;99.90;;;;;;5080379;28;20027;-33
2023/05/19 05:16:05;;;;;;;7.38;4.18;;;9.80;99.90;;;;;;5065234;28;20051;-33
2023/05/19 05:18:31;;;;;;;5.97;3.80;;;9.90;99.90;;;;;;5082166;28;20024;-33
2023/05/19 05:21:00;;;;;;;5.57;3.42;;;9.90;99.90;;;;;;5084100;28;20510;-33
2023/05/19 05:23:26;;;;;;;5.47;4.05;;;10.00;99.90;;;;;;5083788;28;20074;-32
2023/05/19 05:25:52;;;;;;;6.47;4.20;;;10.00;99.90;;;;;;5084297;28;20024;-33
2023/05/19 05:28:18;;;;;;;5.97;4.25;;;10.10;99.90;;;;;;5083408;28;20031;-33
2023/05/19 05:30:44;;;;;;;3.85;3.33;;;10.10;99.90;;;;;;5082242;28;20134;-32
2023/05/19 05:33:10;;;;;;;6.63;3.60;;;10.20;99.90;;;;;;5084128;28;20034;-34
2023/05/19 05:35:39;;;;;;;5.68;3.60;;;10.20;99.90;;;;;;5075496;28;20019;-33
2023/05/19 05:38:05;;;;;;;5.30;3.60;;;10.20;99.90;;;;;;5084445;28;20031;-32
2023/05/19 05:40:36;;;;;;;5.25;3.50;;;10.30;99.90;;;;;;5082270;28;20031;-33
2023/05/19 05:43:02;;;;;;;5.20;3.83;;;10.40;99.90;;;;;;5081624;28;20134;-33
2023/05/19 05:45:34;;;;;;;6.07;3.60;;;10.40;99.90;;;;;;5075829;28;20841;-33
2023/05/19 05:48:00;;;;;;;6.47;3.85;;;10.40;99.90;;;;;;5084283;28;20119;-33
2023/05/19 05:50:25;;;;;;;5.93;3.60;;;10.50;99.90;;;;;;5080017;28;20020;-33
2023/05/19 05:52:53;;;;;;;5.72;3.05;;;10.60;99.90;;;;;;5084213;28;20483;-32
2023/05/19 05:55:19;;;;;;;6.55;4.03;;;10.70;99.90;;;;;;5078168;28;20051;-34
2023/05/19 05:57:47;;;;;;;5.43;3.33;;;10.70;99.90;;;;;;5080334;28;20037;-33
2023/05/19 06:00:16;;;;;;;4.55;3.50;;;10.70;99.90;;;;;;5084422;28;20020;-33
2023/05/19 06:02:45;;;;;;;7.40;3.40;;;10.80;99.90;;;;;;5083576;28;20498;-33
2023/05/19 06:05:13;;;;;;;5.55;4.03;;;10.90;99.90;;;;;;5078788;28;20048;-33
2023/05/19 06:07:42;;;;;;;7.47;4.40;;;10.90;99.90;;;;;;5083916;28;20547;-33
2023/05/19 06:10:08;;;;;;;3.78;3.08;;;11.00;99.90;;;;;;5081479;28;20029;-34
2023/05/19 06:12:34;;;;;;;3.95;3.17;;;11.00;99.90;;;;;;5084052;28;20031;-32
2023/05/19 06:15:03;;;;;;;7.65;3.28;;;11.10;99.90;;;;;;5081698;28;20047;-34
2023/05/19 06:17:29;;;;;;;6.22;3.13;;;11.20;99.90;;;;;;5082726;28;20020;-34
2023/05/19 06:19:55;;;;;;;5.05;3.28;;;11.20;99.90;;;;;;5081866;28;20105;-33
2023/05/19 06:22:20;;;;;;;8.48;3.40;;;11.30;99.90;;;;;;5073424;28;20031;-33
2023/05/19 06:24:46;;;;;;;5.72;3.08;;;11.40;99.90;;;;;;5072992;28;20762;-34
2023/05/19 06:27:11;;;;;;;5.10;2.72;;;11.40;99.90;;;;;;5082856;28;20444;-33
2023/05/19 06:29:37;;;;;;;4.95;3.00;;;11.50;99.90;;;;;;5082104;28;20772;-33
2023/05/19 06:32:02;;;;;;;6.20;2.60;;;11.60;99.90;;;;;;5071180;28;20100;-33
2023/05/19 06:34:28;;;;;;;7.93;2.80;;;11.70;99.90;;;;;;5074122;28;20059;-34
2023/05/19 06:36:53;;;;;;;5.55;2.60;;;11.70;99.90;;;;;;5082748;28;20024;-34
2023/05/19 06:39:19;;;;;;;4.72;2.30;;;11.80;99.90;;;;;;5079155;28;20115;-33
2023/05/19 06:41:44;;;;;;;4.38;2.38;;;11.80;99.90;;;;;;5078641;28;20869;-33
2023/05/19 06:44:10;;;;;;;3.47;1.98;;;11.90;99.90;;;;;;5080994;28;20094;-34
2023/05/19 06:46:36;;;;;;;5.07;2.25;;;12.00;99.90;;;;;;5079582;28;20024;-33
2023/05/19 06:49:01;;;;;;;4.30;2.03;;;12.10;99.90;;;;;;5076414;28;20032;-33
2023/05/19 06:51:27;;;;;;;3.97;2.22;;;12.20;99.90;;;;;;5078560;28;20082;-31
2023/05/19 06:53:52;;;;;;;10.75;2.28;;;12.30;99.90;;;;;;5081832;28;20023;-33
2023/05/19 06:56:18;;;;;;;5.38;1.88;;;12.30;99.90;;;;;;5082818;28;20048;-33
2023/05/19 06:58:44;;;;;;;4.35;1.73;;;12.40;99.90;;;;;;5066653;28;20024;-34
2023/05/19 07:01:10;;;;;;;3.95;1.90;;;12.50;99.90;;;;;;5078143;28;20111;-32
2023/05/19 07:03:38;;;;;;;3.67;1.63;;;12.50;99.90;;;;;;5070696;28;20040;-34
2023/05/19 07:06:03;;;;;;;6.07;2.13;;;12.60;99.90;;;;;;5080826;28;20222;-33
2023/05/19 07:08:29;;;;;;;4.32;1.92;;;12.70;99.90;;;;;;5082785;28;20483;-34
2023/05/19 07:10:54;;;;;;;5.97;2.30;;;12.80;99.90;;;;;;5083766;28;20016;-33
2023/05/19 07:13:20;;;;;;;5.60;2.40;;;12.80;99.90;;;;;;5082186;28;20020;-34
2023/05/19 07:15:47;;;;;;;5.10;2.47;;;12.90;99.90;;;;;;5082879;28;20066;-33
2023/05/19 07:18:16;;;;;;;6.03;2.90;;;13.00;99.90;;;;;;5083676;28;20036;-34
2023/05/19 07:20:41;;;;;;;6.40;2.47;;;13.10;99.90;;;;;;5081744;28;20085;-34
2023/05/19 07:23:07;;;;;;;4.40;2.15;;;13.10;99.90;;;;;;5082986;28;20037;-33
2023/05/19 07:25:33;;;;;;;2.85;1.50;;;13.20;99.90;;;;;;5082768;28;20753;-34
2023/05/19 07:27:58;;;;;;;4.25;1.88;;;13.20;99.90;;;;;;5082316;28;20062;-32
2023/05/19 07:30:26;;;;;;;3.47;1.58;;;13.30;99.90;;;;;;5082402;28;20067;-33
2023/05/19 07:32:52;;;;;;;3.13;1.30;;;13.30;99.90;;;;;;5081506;28;20035;-33
2023/05/19 07:35:18;;;;;;;3.00;1.30;;;13.40;99.90;;;;;;5081867;28;20554;-34
2023/05/19 07:37:44;;;;;;;3.20;1.40;;;13.40;99.90;;;;;;5082056;28;20031;-33
2023/05/19 07:40:10;;;;;;;2.55;1.42;;;13.50;99.90;;;;;;5082195;28;20028;-33
2023/05/19 07:42:36;;;;;;;3.05;1.70;;;13.50;99.90;;;;;;5082106;28;20034;-34
2023/05/19 07:45:02;;;;;;;3.17;1.35;;;13.60;99.90;;;;;;5082633;28;20749;-35
2023/05/19 07:47:28;;;;;;;2.30;1.38;;;13.60;99.90;;;;;;5080524;28;20132;-34
2023/05/19 07:49:54;;;;;;;4.43;1.42;;;13.70;99.90;;;;;;5081667;28;20583;-34
2023/05/19 07:52:19;;;;;;;3.30;1.85;;;13.80;99.90;;;;;;5081099;28;20065;-34
2023/05/19 07:54:45;;;;;;;3.45;1.60;;;13.90;99.90;;;;;;5080758;28;20131;-33
2023/05/19 07:57:11;;;;;;;2.13;1.48;;;14.00;99.90;;;;;;5082032;28;20031;-34
2023/05/19 07:59:36;;;;;;;3.95;1.48;;;14.10;99.90;;;;;;5081957;28;20020;-34
2023/05/19 08:02:02;;;;;;;4.97;1.42;;;14.10;99.90;;;;;;5081218;28;20587;-34
2023/05/19 08:04:27;;;;;;;4.28;1.73;;;14.20;99.90;;;;;;5081636;28;20028;-33
2023/05/19 08:06:53;;;;;;;2.65;1.35;;;14.20;99.90;;;;;;5082179;28;20107;-34
2023/05/19 08:09:19;;;;;;;4.70;1.58;;;14.30;99.90;;;;;;5081285;28;20448;-33
2023/05/19 08:11:45;;;;;;;5.85;1.58;;;14.30;99.90;;;;;;5082611;28;20096;-34
2023/05/19 08:14:11;;;;;;;4.32;1.88;;;14.30;99.90;;;;;;5082109;28;20105;-35
2023/05/19 08:16:37;;;;;;;4.57;1.95;;;14.40;99.90;;;;;;5080398;28;20036;-34
2023/05/19 08:19:04;;;;;;;3.58;1.50;;;14.40;99.90;;;;;;5081751;28;20364;-34
2023/05/19 08:21:33;;;;;;;5.07;1.52;;;14.40;99.90;;;;;;5081881;28;20053;-35
2023/05/19 08:24:00;;;;;;;3.40;1.60;;;14.50;99.90;;;;;;5081559;28;20032;-34
2023/05/19 08:26:26;;;;;;;3.88;1.48;;;14.50;99.90;;;;;;5080902;28;20443;-35
2023/05/19 08:28:51;;;;;;;5.10;1.95;;;14.50;99.90;;;;;;5081367;28;20016;-34
2023/05/19 08:31:17;;;;;;;3.88;1.50;;;14.60;99.90;;;;;;5080136;28;20387;-34
2023/05/19 08:33:43;;;;;;;4.03;1.38;;;14.60;99.90;;;;;;5079935;28;20838;-35
2023/05/19 08:36:08;;;;;;;4.78;1.88;;;14.70;99.90;;;;;;5081458;28;20517;-34
2023/05/19 08:38:34;;;;;;;2.58;1.30;;;14.70;99.90;;;;;;5080386;28;20056;-33
2023/05/19 08:41:00;;;;;;;3.13;1.20;;;14.80;99.90;;;;;;5081885;28;20836;-34
2023/05/19 08:43:29;;;;;;;3.67;1.40;;;14.80;99.90;;;;;;5080551;28;20058;-35
2023/05/19 08:45:54;;;;;;;4.15;1.35;;;14.90;99.90;;;;;;5081181;28;20020;-35
2023/05/19 08:48:21;;;;;;;2.72;1.30;;;15.00;99.90;;;;;;5084255;28;20470;-32
2023/05/19 08:51:28;;;;;;;2.72;1.60;;;15.00;99.90;;;;;;5084422;28;20061;-34
2023/05/19 08:53:59;;;;;;;3.40;1.08;;;15.00;99.80;;;;;;5084808;28;20094;-34
2023/05/19 08:56:25;;;;;;;4.65;1.90;;;15.00;99.70;;;;;;5083649;28;20075;-35
2023/05/19 08:58:51;;;;;;;3.38;1.40;;;15.10;99.30;;;;;;5084646;28;20020;-35
2023/05/19 09:01:18;;;;;;;3.13;1.35;;;15.10;99.10;;;;;;5084208;28;20035;-33
2023/05/19 09:03:44;;;;;;;3.50;1.40;;;15.20;98.90;;;;;;5084459;28;20589;-34
2023/05/19 09:06:13;;;;;;;5.00;1.60;;;15.20;99.10;;;;;;5084460;28;20026;-34
2023/05/19 09:08:42;;;;;;;6.22;2.10;;;15.30;98.70;;;;;;5085000;28;20853;-34
2023/05/19 09:11:09;;;;;;;4.82;1.63;;;15.30;97.80;;;;;;5085105;28;20024;-34
2023/05/19 09:13:35;;;;;;;4.28;1.23;;;15.40;97.70;;;;;;5082159;28;20030;-33
2023/05/19 09:16:02;;;;;;;3.88;1.40;;;15.50;97.70;;;;;;5082533;28;20020;-34
2023/05/19 09:18:27;;;;;;;2.85;1.17;;;15.50;97.40;;;;;;5084620;28;20024;-34
2023/05/19 09:20:59;;;;;;;4.63;2.13;;;15.60;97.40;;;;;;5084844;28;20552;-36
2023/05/19 09:23:31;;;;;;;3.25;1.27;;;15.70;97.20;;;;;;5085371;28;20039;-35
2023/05/19 09:26:00;;;;;;;2.83;1.20;;;15.70;97.10;;;;;;5085442;28;20119;-34
2023/05/19 09:28:31;;;;;;;3.92;0.95;;;15.80;97.00;;;;;;5084548;28;20028;-35
2023/05/19 09:31:07;;;;;;;2.78;0.85;;;15.80;96.80;;;;;;5085695;28;20020;-34
2023/05/19 09:33:35;;;;;;;2.67;0.93;;;15.90;96.70;;;;;;5093259;28;20059;-35
2023/05/19 09:36:02;;;;;;;2.38;1.00;;;15.90;96.70;;;;;;5095835;28;20557;-35
2023/05/19 09:38:28;;;;;;;3.92;1.50;;;16.00;96.70;;;;;;5083690;28;20617;-34
2023/05/19 09:40:58;;;;;;;2.05;1.10;;;16.10;96.60;;;;;;5084673;28;20023;-34
2023/05/19 09:43:27;;;;;;;4.53;1.15;;;16.20;96.50;;;;;;5084734;28;20059;-34
2023/05/19 09:45:57;;;;;;;3.00;1.00;;;16.20;96.30;;;;;;5094172;28;20542;-36
2023/05/19 09:48:26;;;;;;;3.55;1.52;;;16.30;96.10;;;;;;5073214;28;20062;-34
2023/05/19 09:50:52;;;;;;;2.10;1.13;;;16.30;95.80;;;;;;5084829;28;20020;-34
2023/05/19 09:53:19;;;;;;;3.85;1.35;;;16.40;95.70;;;;;;5084642;28;20024;-34
2023/05/19 09:55:45;;;;;;;6.07;1.25;;;16.50;95.40;;;;;;5083781;28;20509;-34
2023/05/19 09:58:16;;;;;;;2.63;1.20;;;16.50;95.30;;;;;;5084661;28;20550;-35
2023/05/19 10:00:42;;;;;;;4.97;1.52;;;16.50;95.10;;;;;;5084378;28;20111;-34
2023/05/19 10:03:08;;;;;;;3.38;1.25;;;16.50;94.40;;;;;;5082535;28;20082;-34
2023/05/19 10:05:35;;;;;;;3.58;1.38;;;16.50;94.20;;;;;;5083018;28;20081;-33
2023/05/19 10:08:01;;;;;;;2.38;1.25;;;16.60;94.20;;;;;;5083433;28;20052;-35
2023/05/19 10:10:28;;;;;;;3.30;1.40;;;16.60;93.70;;;;;;5082704;28;20102;-34
2023/05/19 10:12:54;;;;;;;4.85;1.23;;;16.60;93.30;;;;;;5084317;28;20027;-35
2023/05/19 10:15:19;;;;;;;4.10;1.70;;;16.50;93.00;;;;;;5083343;28;20032;-34
2023/05/19 10:17:45;;;;;;;2.80;1.27;;;16.60;93.20;;;;;;5083752;28;20020;-35
2023/05/19 10:20:15;;;;;;;3.33;1.10;;;16.60;93.30;;;;;;5083750;28;20559;-34
2023/05/19 10:22:42;;;;;;;4.00;1.20;;;16.60;93.50;;;;;;5083176;28;20118;-34
2023/05/19 10:25:09;;;;;;;3.65;1.48;;;16.70;93.40;;;;;;5084183;28;20169;-34
2023/05/19 10:27:43;;;;;;;3.88;1.42;;;16.70;93.10;;;;;;5082274;28;20055;-36
2023/05/19 10:30:15;;;;;;;3.40;1.38;;;16.80;92.80;;;;;;5083365;28;20676;-35
2023/05/19 10:32:43;;;;;;;3.20;1.52;;;16.80;92.60;;;;;;5082049;28;20031;-33
2023/05/19 10:35:45;;;;;;;1.33;0.90;;;16.80;92.60;;;;;;5084395;28;20039;-34
2023/05/19 10:38:55;;;;;;;3.60;0.93;;;16.90;92.70;;;;;;5083417;28;20058;-34
2023/05/19 10:41:33;;;;;;;3.53;1.20;;;16.90;92.70;;;;;;4981334;28;20116;-34
2023/05/19 10:44:33;;;;;;;2.95;1.08;;;16.90;92.60;;;;;;5077113;28;20845;-35
2023/05/19 10:46:59;;;;;;;2.22;1.00;;;17.00;92.50;;;;;;5063789;28;20030;-35
2023/05/19 10:49:25;;;;;;;2.03;1.10;;;17.00;92.50;;;;;;5079923;28;20794;-34
2023/05/19 10:51:56;;;;;;;1.80;1.23;;;17.10;92.40;;;;;;5083360;28;20479;-35
2023/05/19 10:54:42;;;;;;;3.45;1.38;;;17.10;92.00;;;;;;5083388;28;20030;-34
2023/05/19 10:57:12;;;;;;;4.40;1.27;;;17.20;91.80;;;;;;5061945;28;20024;-35
2023/05/19 10:59:38;;;;;;;2.20;1.20;;;17.20;91.70;;;;;;5079100;28;20024;-34
2023/05/19 11:02:05;;;;;;;1.75;1.10;;;17.30;91.80;;;;;;5083593;28;20163;-34
2023/05/19 11:04:51;;;;;;;2.08;1.17;;;17.40;91.80;;;;;;5082331;28;20410;-33
2023/05/19 11:07:19;;;;;;;5.57;1.42;;;17.50;91.60;;;;;;5064432;28;20441;-35
2023/05/19 11:09:51;;;;;;;2.67;1.27;;;17.50;91.40;;;;;;5076846;28;20073;-34
2023/05/19 11:12:21;;;;;;;2.42;1.30;;;17.50;91.30;;;;;;5080617;28;20447;-35
2023/05/19 11:14:47;;;;;;;5.32;1.88;;;17.60;91.30;;;;;;5082292;28;20786;-35
2023/05/19 11:17:14;;;;;;;6.55;1.90;;;17.60;90.70;;;;;;5082231;28;20111;-35
2023/05/19 11:19:54;;;;;;;3.50;1.40;;;17.60;90.30;;;;;;5081192;28;20027;-34
2023/05/19 11:22:25;;;;;;;5.38;1.60;;;17.60;90.30;;;;;;5082351;28;20024;-34
2023/05/19 11:24:54;;;;;;;3.75;1.45;;;17.60;90.00;;;;;;5083103;28;20039;-35
2023/05/19 11:27:31;;;;;;;3.60;1.38;;;17.70;89.70;;;;;;5081801;28;20028;-34
2023/05/19 11:30:18;;;;;;;2.63;1.63;;;17.70;89.60;;;;;;5082975;28;20023;-34
2023/05/19 11:32:46;;;;;;;4.20;1.20;;;17.70;89.00;;;;;;5082178;28;20020;-36
2023/05/19 11:35:13;;;;;;;2.15;1.30;;;17.70;88.80;;;;;;5082293;28;20089;-34
2023/05/19 11:37:40;;;;;;;2.33;1.13;;;17.70;89.10;;;;;;5081417;28;20433;-34
2023/05/19 11:40:06;;;;;;;3.22;1.15;;;17.80;89.30;;;;;;5080624;28;20016;-34
2023/05/19 11:42:33;;;;;;;1.35;0.82;;;17.80;89.50;;;;;;5081285;28;20126;-35
2023/05/19 11:44:59;;;;;;;2.55;1.23;;;17.80;89.50;;;;;;5081338;28;20028;-34
2023/05/19 11:47:26;;;;;;;3.03;1.00;;;17.90;89.30;;;;;;5080366;28;20032;-34
2023/05/19 11:49:55;;;;;;;4.88;1.70;;;17.90;89.40;;;;;;5081864;28;20020;-33
2023/05/19 11:52:22;;;;;;;2.20;1.23;;;17.90;89.10;;;;;;5082974;28;20028;-34
2023/05/19 11:54:48;;;;;;;3.13;1.40;;;18.00;88.00;;;;;;5082244;28;20047;-34
2023/05/19 11:57:13;;;;;;;3.20;1.48;;;18.00;87.30;;;;;;5082019;28;20037;-34
2023/05/19 11:59:44;;;;;;;2.70;1.30;;;18.00;86.60;;;;;;5082130;28;20031;-35
2023/05/19 12:02:20;;;;;;;4.55;1.50;;;18.00;86.40;;;;;;5082134;28;20036;-34
2023/05/19 12:04:48;;;;;;;3.85;1.50;;;18.00;86.10;;;;;;5083118;28;20028;-34
2023/05/19 12:07:18;;;;;;;3.90;1.67;;;18.00;85.60;;;;;;5082590;28;20028;-34
2023/05/19 12:09:44;;;;;;;2.63;1.55;;;18.00;85.30;;;;;;5081878;28;20029;-34
2023/05/19 12:12:15;;;;;;;1.98;1.40;;;18.00;85.30;;;;;;5083069;28;20512;-33
2023/05/19 12:14:48;;;;;;;2.92;1.15;;;18.00;85.60;;;;;;5081599;28;20030;-34
2023/05/19 12:17:18;;;;;;;5.07;1.40;;;18.00;85.90;;;;;;5082706;28;20753;-34
2023/05/19 12:19:45;;;;;;;3.92;1.45;;;18.10;85.60;;;;;;5062850;28;20111;-34
2023/05/19 12:22:16;;;;;;;3.92;1.52;;;18.10;85.30;;;;;;5076629;28;20028;-33
2023/05/19 12:24:43;;;;;;;2.88;1.25;;;18.10;85.30;;;;;;5080557;28;20127;-34
2023/05/19 12:27:18;;;;;;;2.03;1.27;;;18.10;85.30;;;;;;5083894;28;20028;-34
2023/05/19 12:29:52;;;;;;;2.78;1.05;;;18.20;85.00;;;;;;5085261;28;20055;-34
2023/05/19 12:32:21;;;;;;;3.13;1.50;;;18.40;85.10;;;;;;5078808;28;20471;-34
2023/05/19 12:34:48;;;;;;;4.90;1.58;;;18.50;84.40;;;;;;5086363;28;20047;-34
2023/05/19 12:37:13;;;;;;;3.58;1.75;;;18.60;84.20;;;;;;5085471;28;20427;-34
2023/05/19 12:39:41;;;;;;;2.70;1.48;;;18.70;83.70;;;;;;5085936;28;20035;-34
2023/05/19 12:42:08;;;;;;;3.60;1.30;;;18.80;83.90;;;;;;5086179;28;20555;-35
2023/05/19 12:44:42;;;;;;;3.25;1.15;;;18.90;84.00;;;;;;5084628;28;20669;-34
2023/05/19 12:47:11;;;;;;;2.33;1.00;;;19.10;84.10;;;;;;5086903;28;20494;-35
2023/05/19 12:49:55;;;;;;;2.67;1.20;;;19.20;84.10;;;;;;5084932;28;20024;-33
2023/05/19 12:52:22;;;;;;;2.78;1.50;;;19.40;83.90;;;;;;5086105;28;20023;-35
2023/05/19 12:54:49;;;;;;;2.63;1.38;;;19.60;82.30;;;;;;5086420;28;20134;-33
2023/05/19 12:57:19;;;;;;;6.53;1.73;;;19.70;81.50;;;;;;5085244;28;20471;-34